createdAt,value
2019-03-25T00:01:28.793Z,78.80
2019-03-25T00:03:57.585Z,78.50
2019-03-25T00:06:25.484Z,78.10
2019-03-25T00:09:05.024Z,78.00
2019-03-25T00:11:23.478Z,77.90
2019-03-25T00:13:51.466Z,77.50
2019-03-25T00:16:19.475Z,77.10
2019-03-25T00:18:47.370Z,77.10
2019-03-25T00:21:15.250Z,77.30
2019-03-25T00:23:43.158Z,77.30
2019-03-25T00:26:11.218Z,77.10
2019-03-25T00:28:39.509Z,77.30
2019-03-25T00:31:07.638Z,77.40
2019-03-25T00:33:35.732Z,77.30
2019-03-25T00:36:03.683Z,77.40
2019-03-25T00:38:31.766Z,77.60
2019-03-25T00:41:00.238Z,77.20
2019-03-25T00:43:28.264Z,77.20
2019-03-25T00:45:56.642Z,76.10
2019-03-25T00:48:24.631Z,75.80
2019-03-25T00:50:52.618Z,74.80
2019-03-25T00:53:20.532Z,75.10
2019-03-25T00:55:48.810Z,74.90
2019-03-25T00:58:16.851Z,74.60
2019-03-25T01:00:45.863Z,74.00
2019-03-25T01:03:13.754Z,73.90
2019-03-25T01:05:41.811Z,73.80
2019-03-25T01:08:09.681Z,74.10
2019-03-25T01:10:37.645Z,73.30
2019-03-25T01:13:05.691Z,72.90
2019-03-25T01:15:34.643Z,73.20
2019-03-25T01:18:02.522Z,72.50
2019-03-25T01:20:30.487Z,71.70
2019-03-25T01:22:58.766Z,71.50
2019-03-25T01:25:26.618Z,72.00
2019-03-25T01:27:54.510Z,72.10
2019-03-25T01:30:22.371Z,71.10
2019-03-25T01:32:50.394Z,70.60
2019-03-25T01:35:18.485Z,70.00
2019-03-25T01:37:46.503Z,69.10
2019-03-25T01:40:14.566Z,66.80
2019-03-25T01:42:42.278Z,66.10
2019-03-25T01:45:10.378Z,65.40
2019-03-25T01:47:38.212Z,64.40
2019-03-25T01:50:06.761Z,64.40
2019-03-25T01:52:34.860Z,63.80
2019-03-25T01:55:12.923Z,64.10
2019-03-25T01:57:33.804Z,63.70
2019-03-25T02:00:02.121Z,63.90
2019-03-25T02:02:32.133Z,64.00
2019-03-25T02:05:00.359Z,63.80
2019-03-25T02:07:28.646Z,63.90
2019-03-25T02:09:56.726Z,64.40
2019-03-25T02:12:25.097Z,65.00
2019-03-25T02:14:53.176Z,65.30
2019-03-25T02:17:21.401Z,65.60
2019-03-25T02:19:49.616Z,65.80
2019-03-25T02:22:17.996Z,65.90
2019-03-25T02:24:46.377Z,66.00
2019-03-25T02:27:14.799Z,66.30
2019-03-25T02:29:43.130Z,66.30
2019-03-25T02:32:11.297Z,66.60
2019-03-25T02:34:39.676Z,66.60
2019-03-25T02:37:07.884Z,67.00
2019-03-25T02:39:36.259Z,67.40
2019-03-25T02:42:04.725Z,67.20
2019-03-25T02:44:32.890Z,67.20
2019-03-25T02:47:01.262Z,67.70
2019-03-25T02:49:29.646Z,67.50
2019-03-25T02:51:58.127Z,67.40
2019-03-25T02:54:26.813Z,67.60
2019-03-25T02:56:55.421Z,67.80
2019-03-25T02:59:23.357Z,67.80
2019-03-25T03:01:51.542Z,68.00
2019-03-25T03:04:19.844Z,68.20
2019-03-25T03:06:48.431Z,68.10
2019-03-25T03:09:16.508Z,67.90
2019-03-25T03:11:44.745Z,68.30
2019-03-25T03:14:15.392Z,67.70
2019-03-25T03:16:43.161Z,67.80
2019-03-25T03:19:11.232Z,67.40
2019-03-25T03:21:39.350Z,67.40
2019-03-25T03:24:07.661Z,67.50
2019-03-25T03:26:36.143Z,67.50
2019-03-25T03:29:04.490Z,67.90
2019-03-25T03:31:32.701Z,67.80
2019-03-25T03:34:01.364Z,67.80
2019-03-25T03:36:29.582Z,67.90
2019-03-25T03:38:57.804Z,68.00
2019-03-25T03:41:26.450Z,68.10
2019-03-25T03:43:54.703Z,68.20
2019-03-25T03:46:22.957Z,68.50
2019-03-25T03:48:51.184Z,68.30
2019-03-25T03:51:19.612Z,68.50
2019-03-25T03:53:47.990Z,68.80
2019-03-25T03:56:16.426Z,68.80
2019-03-25T03:58:45.381Z,69.10
2019-03-25T04:01:13.490Z,69.10
2019-03-25T04:03:41.413Z,69.80
2019-03-25T04:06:09.043Z,69.70
2019-03-25T04:08:36.967Z,70.10
2019-03-25T04:11:05.386Z,70.40
2019-03-25T04:13:33.414Z,70.80
2019-03-25T04:16:01.854Z,71.20
2019-03-25T04:18:29.775Z,71.10
2019-03-25T04:20:59.136Z,72.00
2019-03-25T04:23:27.186Z,72.20
2019-03-25T04:25:55.520Z,72.40
2019-03-25T04:28:23.428Z,72.30
2019-03-25T04:30:51.471Z,72.20
2019-03-25T04:33:19.394Z,72.30
2019-03-25T04:35:48.640Z,72.30
2019-03-25T04:38:16.663Z,72.20
2019-03-25T04:40:44.526Z,72.30
2019-03-25T04:43:12.547Z,72.30
2019-03-25T04:45:40.511Z,72.40
2019-03-25T04:48:08.926Z,72.60
2019-03-25T04:50:36.960Z,72.60
2019-03-25T04:53:04.848Z,72.80
2019-03-25T04:55:33.072Z,73.00
2019-03-25T04:58:00.962Z,72.90
2019-03-25T05:00:33.623Z,73.10
2019-03-25T05:03:01.646Z,73.40
2019-03-25T05:05:29.636Z,73.70
2019-03-25T05:07:57.607Z,73.60
2019-03-25T05:10:26.754Z,74.10
2019-03-25T05:12:54.463Z,74.00
2019-03-25T05:15:22.534Z,74.30
2019-03-25T05:17:50.514Z,74.40
2019-03-25T05:20:19.976Z,74.20
2019-03-25T05:22:47.755Z,74.80
2019-03-25T05:25:15.750Z,75.40
2019-03-25T05:27:43.761Z,75.30
2019-03-25T05:30:11.879Z,75.10
2019-03-25T05:32:39.656Z,75.30
2019-03-25T05:35:07.709Z,75.40
2019-03-25T05:37:35.771Z,76.10
2019-03-25T05:40:03.853Z,76.10
2019-03-25T05:42:31.929Z,76.40
2019-03-25T05:45:00.925Z,76.60
2019-03-25T05:47:28.780Z,76.80
2019-03-25T05:49:56.802Z,76.90
2019-03-25T05:52:24.967Z,76.60
2019-03-25T05:54:52.856Z,76.60
2019-03-25T05:57:22.011Z,76.70
2019-03-25T05:59:50.114Z,76.80
2019-03-25T06:02:18.300Z,77.30
2019-03-25T06:04:47.336Z,76.80
2019-03-25T06:07:15.370Z,76.30
2019-03-25T06:09:44.494Z,76.80
2019-03-25T06:12:12.549Z,76.30
2019-03-25T06:14:40.447Z,76.30
2019-03-25T06:17:08.481Z,76.40
2019-03-25T06:19:36.347Z,76.60
2019-03-25T06:22:04.217Z,76.40
2019-03-25T06:24:32.404Z,76.40
2019-03-25T06:27:00.777Z,76.10
2019-03-25T06:29:28.760Z,76.00
2019-03-25T06:31:56.609Z,76.20
2019-03-25T06:34:24.490Z,76.00
2019-03-25T06:36:52.545Z,76.20
2019-03-25T06:39:20.438Z,76.20
2019-03-25T06:41:48.314Z,76.40
2019-03-25T06:44:16.157Z,76.60
2019-03-25T06:46:44.017Z,76.50
2019-03-25T06:49:12.024Z,76.40
2019-03-25T06:51:40.054Z,76.40
2019-03-25T06:54:08.134Z,76.20
2019-03-25T06:56:36.188Z,76.60
2019-03-25T06:59:04.270Z,76.20
2019-03-25T07:01:32.366Z,76.00
2019-03-25T07:04:00.481Z,76.00
2019-03-25T07:06:28.416Z,75.20
2019-03-25T07:08:56.597Z,75.00
2019-03-25T07:11:25.114Z,74.70
2019-03-25T07:13:53.698Z,74.20
2019-03-25T07:16:21.963Z,73.90
2019-03-25T07:18:50.032Z,73.60
2019-03-25T07:21:20.444Z,72.20
2019-03-25T07:23:47.921Z,72.40
2019-03-25T07:26:15.921Z,73.00
2019-03-25T07:28:43.938Z,71.90
2019-03-25T07:31:12.805Z,71.90
2019-03-25T07:33:40.904Z,71.80
2019-03-25T07:36:08.924Z,72.00
2019-03-25T07:38:36.920Z,72.00
2019-03-25T07:41:04.926Z,71.70
2019-03-25T07:43:32.805Z,71.70
2019-03-25T07:46:00.560Z,71.70
2019-03-25T07:48:28.433Z,70.80
2019-03-25T07:50:57.352Z,71.40
2019-03-25T07:53:25.238Z,71.40
2019-03-25T07:55:53.281Z,71.20
2019-03-25T07:58:21.544Z,71.50
2019-03-25T08:00:49.393Z,71.20
2019-03-25T08:03:17.484Z,70.80
2019-03-25T08:05:45.483Z,71.00
2019-03-25T08:08:13.296Z,70.90
2019-03-25T08:10:41.354Z,70.30
2019-03-25T08:13:09.293Z,70.70
2019-03-25T08:15:37.503Z,70.40
2019-03-25T08:18:05.597Z,70.80
2019-03-25T08:20:33.567Z,70.10
2019-03-25T08:23:01.559Z,70.50
2019-03-25T08:25:29.539Z,70.40
2019-03-25T08:28:00.393Z,70.30
2019-03-25T08:30:27.450Z,70.30
2019-03-25T08:32:55.298Z,70.00
2019-03-25T08:35:23.186Z,70.00
2019-03-25T08:37:51.035Z,69.00
2019-03-25T08:40:19.066Z,68.90
2019-03-25T08:42:47.076Z,68.00
2019-03-25T08:45:15.096Z,67.50
2019-03-25T08:47:43.118Z,67.10
2019-03-25T08:50:11.682Z,67.20
2019-03-25T08:52:39.567Z,67.60
2019-03-25T08:55:07.918Z,67.30
2019-03-25T08:57:36.038Z,67.30
2019-03-25T09:00:05.043Z,67.20
2019-03-25T09:02:34.009Z,66.70
2019-03-25T09:05:02.014Z,66.50
2019-03-25T09:07:31.315Z,66.10
2019-03-25T09:09:59.312Z,66.30
2019-03-25T09:12:27.304Z,66.50
2019-03-25T09:14:55.134Z,66.80
2019-03-25T09:17:23.015Z,66.90
2019-03-25T09:19:50.935Z,66.50
2019-03-25T09:22:18.781Z,67.10
2019-03-25T09:24:46.819Z,67.50
2019-03-25T09:27:14.509Z,67.70
2019-03-25T09:29:42.457Z,68.00
2019-03-25T09:32:10.483Z,68.70
2019-03-25T09:34:38.378Z,69.10
2019-03-25T09:37:06.333Z,69.10
2019-03-25T09:39:34.341Z,69.30
2019-03-25T09:42:02.235Z,69.10
2019-03-25T09:44:30.211Z,69.40
2019-03-25T09:46:58.114Z,69.60
2019-03-25T09:49:26.504Z,69.30
2019-03-25T09:51:54.363Z,70.00
2019-03-25T09:54:22.165Z,69.70
2019-03-25T09:56:52.009Z,69.20
2019-03-25T09:59:20.012Z,69.70
2019-03-25T10:01:48.013Z,69.20
2019-03-25T10:04:16.335Z,69.80
2019-03-25T10:06:44.117Z,69.80
2019-03-25T10:09:13.225Z,69.50
2019-03-25T10:11:42.229Z,69.40
2019-03-25T10:14:10.367Z,69.80
2019-03-25T10:16:38.462Z,70.70
2019-03-25T10:19:06.441Z,69.90
2019-03-25T10:21:34.346Z,70.00
2019-03-25T10:24:02.451Z,69.80
2019-03-25T10:26:30.396Z,68.90
2019-03-25T10:28:58.283Z,68.00
2019-03-25T10:31:26.722Z,68.10
2019-03-25T10:33:54.830Z,68.70
2019-03-25T10:36:22.704Z,68.10
2019-03-25T10:38:50.729Z,67.30
2019-03-25T10:41:18.713Z,67.50
2019-03-25T10:43:46.593Z,67.10
2019-03-25T10:46:14.729Z,67.20
2019-03-25T10:48:42.553Z,66.80
2019-03-25T10:51:10.292Z,66.90
2019-03-25T10:53:40.038Z,66.30
2019-03-25T10:56:07.956Z,65.70
2019-03-25T10:58:36.012Z,65.90
2019-03-25T11:01:04.555Z,65.90
2019-03-25T11:03:32.698Z,64.70
2019-03-25T11:06:00.910Z,64.90
2019-03-25T11:08:28.854Z,64.10
2019-03-25T11:10:56.959Z,63.30
2019-03-25T11:13:26.249Z,64.10
2019-03-25T11:15:54.287Z,64.20
2019-03-25T11:18:22.303Z,64.90
2019-03-25T11:20:50.663Z,65.50
2019-03-25T11:23:18.642Z,65.50
2019-03-25T11:25:46.753Z,64.20
2019-03-25T11:28:14.640Z,63.60
2019-03-25T11:30:59.984Z,64.10
2019-03-25T11:33:28.251Z,64.90
2019-03-25T11:35:58.161Z,65.90
2019-03-25T11:38:26.108Z,66.80
2019-03-25T11:40:54.391Z,67.20
2019-03-25T11:43:22.770Z,66.70
2019-03-25T11:45:50.940Z,64.60
2019-03-25T11:48:18.823Z,64.90
2019-03-25T11:50:47.951Z,65.20
2019-03-25T11:53:15.775Z,65.40
2019-03-25T11:55:44.040Z,66.30
2019-03-25T11:58:11.990Z,66.20
2019-03-25T12:00:40.321Z,66.50
2019-03-25T12:03:08.654Z,66.20
2019-03-25T12:05:36.671Z,66.90
2019-03-25T12:08:05.169Z,65.60
2019-03-25T12:10:33.197Z,65.70
2019-03-25T12:13:01.102Z,65.40
2019-03-25T12:15:29.014Z,64.90
2019-03-25T12:17:57.013Z,64.90
2019-03-25T12:20:25.173Z,64.30
2019-03-25T12:22:53.082Z,62.80
2019-03-25T12:25:20.979Z,60.60
2019-03-25T12:27:48.979Z,60.30
2019-03-25T12:30:17.167Z,59.70
2019-03-25T12:32:45.199Z,59.80
2019-03-25T12:35:13.261Z,59.00
2019-03-25T12:37:41.160Z,60.10
2019-03-25T12:40:09.650Z,60.20
2019-03-25T12:42:37.635Z,57.60
2019-03-25T12:45:06.545Z,56.70
2019-03-25T12:47:34.766Z,56.20
2019-03-25T12:50:04.705Z,57.20
2019-03-25T12:52:33.073Z,58.20
2019-03-25T12:55:00.826Z,58.20
2019-03-25T12:57:30.006Z,57.50
2019-03-25T12:59:58.016Z,57.90
2019-03-25T13:02:25.891Z,58.70
2019-03-25T13:04:53.899Z,59.40
2019-03-25T13:07:21.953Z,59.70
2019-03-25T13:09:50.078Z,59.70
2019-03-25T13:12:17.935Z,60.80
2019-03-25T13:14:45.677Z,61.30
2019-03-25T13:17:13.895Z,61.70
2019-03-25T13:19:41.601Z,62.50
2019-03-25T13:22:09.673Z,59.60
2019-03-25T13:24:38.003Z,59.80
2019-03-25T13:27:05.895Z,60.30
2019-03-25T13:29:33.826Z,56.20
2019-03-25T13:32:01.692Z,56.00
2019-03-25T13:34:29.566Z,56.90
2019-03-25T13:36:57.439Z,57.50
2019-03-25T13:39:25.450Z,54.50
2019-03-25T13:41:53.397Z,54.20
2019-03-25T13:44:22.331Z,54.80
2019-03-25T13:46:50.319Z,54.70
2019-03-25T13:49:19.280Z,54.40
2019-03-25T13:51:47.267Z,55.30
2019-03-25T13:54:15.369Z,56.00
2019-03-25T13:56:43.369Z,57.30
2019-03-25T13:59:11.444Z,58.20
2019-03-25T14:01:39.578Z,57.90
2019-03-25T14:04:07.575Z,57.70
2019-03-25T14:06:35.528Z,57.30
2019-03-25T14:09:05.800Z,57.00
2019-03-25T14:11:34.607Z,56.80
2019-03-25T14:14:02.698Z,56.10
2019-03-25T14:16:30.615Z,56.30
2019-03-25T14:18:58.484Z,57.30
2019-03-25T14:21:26.463Z,61.70
2019-03-25T14:23:54.473Z,65.00
2019-03-25T14:26:22.331Z,70.60
2019-03-25T14:28:51.428Z,76.40
2019-03-25T14:31:19.455Z,79.40
2019-03-25T14:33:47.587Z,82.20
2019-03-25T14:36:15.957Z,83.60
2019-03-25T14:38:43.968Z,82.60
2019-03-25T14:41:11.808Z,83.60
2019-03-25T14:43:39.766Z,83.60
2019-03-25T14:46:07.753Z,83.30
2019-03-25T14:48:35.765Z,82.80
2019-03-25T14:51:03.904Z,83.90
2019-03-25T14:53:31.729Z,84.00
2019-03-25T14:55:59.608Z,85.40
2019-03-25T14:58:27.588Z,83.20
2019-03-25T15:00:55.690Z,83.80
2019-03-25T15:03:23.568Z,83.10
2019-03-25T15:05:51.565Z,81.80
2019-03-25T15:08:19.596Z,83.20
2019-03-25T15:10:53.559Z,81.60
2019-03-25T15:13:17.487Z,82.00
2019-03-25T15:15:45.523Z,81.30
2019-03-25T15:18:15.781Z,80.20
2019-03-25T15:20:43.359Z,79.60
2019-03-25T15:23:11.199Z,80.10
2019-03-25T15:25:39.193Z,80.10
2019-03-25T15:28:07.095Z,80.00
2019-03-25T15:30:36.491Z,80.60
2019-03-25T15:33:04.580Z,78.50
2019-03-25T15:35:32.459Z,78.70
2019-03-25T15:38:00.587Z,79.10
2019-03-25T15:40:28.770Z,78.50
2019-03-25T15:42:56.822Z,78.10
2019-03-25T15:45:25.150Z,78.80
2019-03-25T15:47:53.244Z,78.40
2019-03-25T15:50:22.211Z,74.30
2019-03-25T15:52:50.222Z,72.50
2019-03-25T15:55:18.089Z,72.30
2019-03-25T15:57:46.092Z,69.80
2019-03-25T16:00:15.765Z,70.50
2019-03-25T16:02:43.774Z,73.00
2019-03-25T16:05:11.698Z,73.70
2019-03-25T16:07:39.668Z,75.00
2019-03-25T16:10:08.144Z,76.20
2019-03-25T16:12:36.318Z,75.30
2019-03-25T16:15:05.127Z,74.80
2019-03-25T16:17:33.045Z,74.90
2019-03-25T16:20:01.082Z,73.80
2019-03-25T16:22:28.895Z,73.70
2019-03-25T16:24:57.158Z,73.40
2019-03-25T16:27:25.118Z,74.00
2019-03-25T16:29:53.865Z,74.20
2019-03-25T16:32:21.895Z,74.50
2019-03-25T16:34:49.808Z,74.90
2019-03-25T16:37:17.805Z,74.80
2019-03-25T16:39:45.774Z,73.30
2019-03-25T16:42:13.666Z,72.00
2019-03-25T16:44:41.677Z,72.30
2019-03-25T16:47:09.804Z,72.70
2019-03-25T16:49:37.754Z,72.90
2019-03-25T16:52:05.751Z,72.40
2019-03-25T16:54:33.932Z,72.80
2019-03-25T16:57:03.169Z,72.00
2019-03-25T16:59:31.005Z,72.30
2019-03-25T17:01:58.900Z,71.60
2019-03-25T17:04:27.052Z,71.70
2019-03-25T17:06:55.222Z,71.40
2019-03-25T17:09:23.177Z,71.70
2019-03-25T17:11:51.340Z,72.00
2019-03-25T17:14:19.410Z,71.80
2019-03-25T17:16:47.265Z,71.50
2019-03-25T17:19:15.256Z,71.30
2019-03-25T17:21:43.152Z,71.60
2019-03-25T17:24:11.153Z,71.30
2019-03-25T17:26:42.610Z,71.30
2019-03-25T17:29:09.220Z,71.20
2019-03-25T17:31:37.389Z,71.00
2019-03-25T17:34:05.441Z,71.30
2019-03-25T17:36:34.474Z,71.30
2019-03-25T17:39:03.801Z,71.50
2019-03-25T17:41:31.906Z,71.30
2019-03-25T17:43:59.993Z,72.00
2019-03-25T17:46:28.497Z,72.20
2019-03-25T17:48:56.507Z,72.10
2019-03-25T17:51:24.506Z,72.00
2019-03-25T17:53:52.460Z,72.00
2019-03-25T17:56:20.485Z,72.20
2019-03-25T17:58:49.352Z,72.00
2019-03-25T18:01:18.714Z,72.20
2019-03-25T18:03:46.890Z,72.40
2019-03-25T18:06:14.800Z,72.80
2019-03-25T18:08:42.817Z,72.70
2019-03-25T18:11:10.886Z,73.20
2019-03-25T18:13:39.809Z,73.10
2019-03-25T18:16:08.268Z,73.10
2019-03-25T18:18:37.208Z,73.30
2019-03-25T18:21:05.272Z,73.50
2019-03-25T18:23:33.143Z,73.40
2019-03-25T18:26:01.045Z,73.40
2019-03-25T18:28:29.205Z,73.80
2019-03-25T18:30:57.202Z,74.00
2019-03-25T18:33:25.218Z,74.50
2019-03-25T18:35:53.276Z,74.60
2019-03-25T18:38:21.235Z,74.90
2019-03-25T18:40:49.288Z,74.90
2019-03-25T18:43:17.428Z,75.50
2019-03-25T18:45:45.490Z,76.20
2019-03-25T18:48:13.373Z,75.80
2019-03-25T18:50:41.549Z,76.60
2019-03-25T18:53:09.410Z,76.90
2019-03-25T18:55:37.446Z,76.00
2019-03-25T18:58:05.381Z,76.50
2019-03-25T19:00:33.511Z,76.30
2019-03-25T19:03:01.851Z,75.10
2019-03-25T19:05:31.075Z,75.40
2019-03-25T19:08:00.650Z,76.40
2019-03-25T19:10:29.102Z,76.50
2019-03-25T19:12:57.595Z,77.10
2019-03-25T19:15:25.501Z,76.70
2019-03-25T19:17:53.570Z,77.40
2019-03-25T19:20:21.504Z,77.50
2019-03-25T19:22:49.804Z,78.30
2019-03-25T19:25:18.300Z,78.40
2019-03-25T19:27:46.213Z,78.60
2019-03-25T19:30:14.679Z,78.80
2019-03-25T19:32:42.703Z,78.80
2019-03-25T19:35:10.691Z,78.80
2019-03-25T19:37:38.653Z,79.00
2019-03-25T19:40:07.073Z,79.60
2019-03-25T19:42:35.227Z,81.70
2019-03-25T19:45:03.681Z,83.30
2019-03-25T19:47:32.343Z,84.30
2019-03-25T19:50:00.631Z,85.10
2019-03-25T19:52:28.734Z,85.70
2019-03-25T19:54:56.986Z,85.90
2019-03-25T19:57:24.953Z,85.80
2019-03-25T19:59:53.607Z,86.00
2019-03-25T20:02:22.160Z,86.00
2019-03-25T20:04:50.322Z,86.20
2019-03-25T20:07:18.341Z,86.00
2019-03-25T20:09:46.557Z,86.10
2019-03-25T20:12:14.665Z,86.30
2019-03-25T20:14:42.756Z,87.10
2019-03-25T20:17:10.926Z,87.30
2019-03-25T20:19:38.808Z,87.70
2019-03-25T20:22:07.006Z,87.90
2019-03-25T20:24:35.634Z,88.10
2019-03-25T20:27:03.936Z,88.20
2019-03-25T20:29:32.012Z,88.30
2019-03-25T20:32:01.904Z,88.90
2019-03-25T20:34:30.162Z,88.70
2019-03-25T20:36:58.229Z,88.90
2019-03-25T20:39:26.362Z,89.10
2019-03-25T20:41:54.311Z,88.90
2019-03-25T20:44:23.244Z,89.40
2019-03-25T20:46:51.395Z,89.60
2019-03-25T20:49:19.794Z,89.60
2019-03-25T20:51:47.926Z,89.70
2019-03-25T20:54:15.828Z,89.60
2019-03-25T20:56:43.700Z,89.70
2019-03-25T20:59:11.894Z,89.80
2019-03-25T21:01:39.993Z,90.10
2019-03-25T21:04:08.227Z,89.90
2019-03-25T21:06:36.932Z,90.10
2019-03-25T21:09:06.491Z,90.20
2019-03-25T21:11:34.770Z,90.10
2019-03-25T21:14:03.336Z,89.90
2019-03-25T21:16:32.580Z,89.80
2019-03-25T21:19:00.437Z,90.40
2019-03-25T21:21:28.501Z,90.40
2019-03-25T21:23:56.619Z,89.90
2019-03-25T21:26:24.481Z,90.20
2019-03-25T21:28:52.571Z,90.30
2019-03-25T21:31:21.699Z,90.40
2019-03-25T21:33:49.743Z,90.80
2019-03-25T21:36:18.092Z,90.80
2019-03-25T21:38:46.398Z,90.70
2019-03-25T21:41:14.413Z,90.70
2019-03-25T21:43:42.569Z,91.10
2019-03-25T21:46:10.454Z,91.50
2019-03-25T21:48:40.059Z,91.80
2019-03-25T21:51:08.152Z,91.90
2019-03-25T21:53:36.462Z,92.00
2019-03-25T21:56:04.599Z,91.90
2019-03-25T21:58:32.528Z,91.80
2019-03-25T22:01:01.077Z,91.80
2019-03-25T22:03:29.392Z,91.60
2019-03-25T22:05:57.630Z,91.80
2019-03-25T22:08:25.640Z,91.80
2019-03-25T22:10:53.619Z,91.60
2019-03-25T22:13:21.649Z,91.90
2019-03-25T22:15:49.620Z,91.60
2019-03-25T22:18:17.532Z,91.60
2019-03-25T22:20:45.605Z,91.80
2019-03-25T22:23:13.558Z,91.20
2019-03-25T22:25:41.586Z,90.90
2019-03-25T22:28:09.654Z,91.00
2019-03-25T22:30:38.348Z,90.80
2019-03-25T22:33:06.558Z,90.50
2019-03-25T22:35:34.543Z,90.20
2019-03-25T22:38:02.453Z,90.50
2019-03-25T22:40:31.094Z,89.90
2019-03-25T22:43:01.580Z,89.80
2019-03-25T22:45:33.120Z,89.60
2019-03-25T22:48:01.346Z,89.60
2019-03-25T22:50:31.216Z,89.40
2019-03-25T22:53:00.609Z,89.60
2019-03-25T22:55:29.484Z,89.60
2019-03-25T22:57:57.791Z,89.90
2019-03-25T23:00:27.894Z,90.10
2019-03-25T23:02:57.703Z,90.30
2019-03-25T23:05:26.302Z,90.10
2019-03-25T23:07:54.622Z,89.90
2019-03-25T23:10:22.822Z,90.10
2019-03-25T23:12:50.573Z,90.30
2019-03-25T23:15:19.136Z,90.40
2019-03-25T23:17:47.101Z,90.20
2019-03-25T23:20:15.784Z,90.10
2019-03-25T23:22:43.920Z,89.90
2019-03-25T23:25:11.733Z,89.30
2019-03-25T23:27:39.751Z,89.30
2019-03-25T23:30:08.549Z,89.50
2019-03-25T23:32:36.728Z,89.20
2019-03-25T23:35:05.217Z,88.90
2019-03-25T23:37:33.238Z,89.10
2019-03-25T23:40:01.289Z,89.10
2019-03-25T23:42:29.414Z,89.30
2019-03-25T23:44:57.410Z,89.50
2019-03-25T23:47:25.319Z,89.40
2019-03-25T23:49:53.513Z,89.70
2019-03-25T23:52:21.496Z,89.50
2019-03-25T23:54:49.412Z,89.30
2019-03-25T23:57:17.459Z,89.40
2019-03-25T23:59:45.482Z,89.50
